sensor_id;sensor_type;location;lat;lon;timestamp;pressure;altitude;pressure_sealevel;temperature;humidity
28432;BME280;15664;51.302;7.744;2023-03-14T00:00:54;83010.59;;;-146.98;90.17
28432;BME280;15664;51.302;7.744;2023-03-14T00:03:19;83022.81;;;-146.98;90.39
28432;BME280;15664;51.302;7.744;2023-03-14T00:05:45;83033.00;;;-146.98;90.58
28432;BME280;15664;51.302;7.744;2023-03-14T00:08:11;83020.78;;;-146.98;90.40
28432;BME280;15664;51.302;7.744;2023-03-14T00:10:37;83079.84;;;-146.98;90.06
28432;BME280;15664;51.302;7.744;2023-03-14T00:13:03;83033.00;;;-146.98;90.18
28432;BME280;15664;51.302;7.744;2023-03-14T00:15:29;83002.44;;;-146.98;89.84
28432;BME280;15664;51.302;7.744;2023-03-14T00:17:54;83030.97;;;-146.98;89.83
28432;BME280;15664;51.302;7.744;2023-03-14T00:20:19;83004.50;;;-146.98;89.61
28432;BME280;15664;51.302;7.744;2023-03-14T00:22:45;83026.88;;;-146.98;89.71
28432;BME280;15664;51.302;7.744;2023-03-14T00:25:12;83004.50;;;-146.98;89.65
28432;BME280;15664;51.302;7.744;2023-03-14T00:27:38;82984.13;;;-146.98;89.71
28432;BME280;15664;51.302;7.744;2023-03-14T00:30:05;83067.63;;;-146.98;89.63
28432;BME280;15664;51.302;7.744;2023-03-14T00:32:32;82996.34;;;-146.98;89.72
28432;BME280;15664;51.302;7.744;2023-03-14T00:34:58;83026.88;;;-146.98;89.45
28432;BME280;15664;51.302;7.744;2023-03-14T00:37:26;83002.44;;;-146.98;89.27
28432;BME280;15664;51.302;7.744;2023-03-14T00:39:52;83051.31;;;-146.98;89.39
28432;BME280;15664;51.302;7.744;2023-03-14T00:42:17;82998.38;;;-146.98;89.31
28432;BME280;15664;51.302;7.744;2023-03-14T00:44:43;82975.97;;;-146.98;89.34
28432;BME280;15664;51.302;7.744;2023-03-14T00:47:09;82992.28;;;-146.98;89.13
28432;BME280;15664;51.302;7.744;2023-03-14T00:49:34;83022.81;;;-146.98;88.91
28432;BME280;15664;51.302;7.744;2023-03-14T00:52:00;83059.47;;;-146.98;88.81
28432;BME280;15664;51.302;7.744;2023-03-14T00:54:26;82994.31;;;-146.98;88.33
28432;BME280;15664;51.302;7.744;2023-03-14T00:56:51;82988.19;;;-146.98;88.63
28432;BME280;15664;51.302;7.744;2023-03-14T00:59:17;82973.94;;;-146.98;88.71
28432;BME280;15664;51.302;7.744;2023-03-14T01:01:43;83000.41;;;-146.98;88.50
28432;BME280;15664;51.302;7.744;2023-03-14T01:04:08;82953.56;;;-146.98;88.89
28432;BME280;15664;51.302;7.744;2023-03-14T01:06:34;82978.00;;;-146.98;88.46
28432;BME280;15664;51.302;7.744;2023-03-14T01:08:59;82992.28;;;-146.98;89.33
28432;BME280;15664;51.302;7.744;2023-03-14T01:11:31;83014.66;;;-146.98;89.22
28432;BME280;15664;51.302;7.744;2023-03-14T01:13:58;83006.53;;;-146.98;89.71
28432;BME280;15664;51.302;7.744;2023-03-14T01:16:25;83030.97;;;-146.98;90.35
28432;BME280;15664;51.302;7.744;2023-03-14T01:18:51;83010.59;;;-146.98;89.40
28432;BME280;15664;51.302;7.744;2023-03-14T01:21:26;83035.03;;;-146.98;89.63
28432;BME280;15664;51.302;7.744;2023-03-14T01:23:54;83018.75;;;-146.98;89.45
28432;BME280;15664;51.302;7.744;2023-03-14T01:26:22;83022.81;;;-146.98;89.67
28432;BME280;15664;51.302;7.744;2023-03-14T01:28:49;83010.59;;;-146.98;89.96
28432;BME280;15664;51.302;7.744;2023-03-14T01:31:16;83061.50;;;-146.98;89.63
28432;BME280;15664;51.302;7.744;2023-03-14T01:33:42;83006.53;;;-146.98;90.35
28432;BME280;15664;51.302;7.744;2023-03-14T01:36:09;82988.19;;;-146.98;92.11
28432;BME280;15664;51.302;7.744;2023-03-14T01:38:37;83016.72;;;-146.98;92.96
28432;BME280;15664;51.302;7.744;2023-03-14T01:41:05;83004.50;;;-146.98;93.94
28432;BME280;15664;51.302;7.744;2023-03-14T01:43:31;83057.44;;;-146.98;95.12
28432;BME280;15664;51.302;7.744;2023-03-14T01:48:37;83075.75;;;-146.98;97.02
28432;BME280;15664;51.302;7.744;2023-03-14T01:51:07;83102.22;;;-146.98;97.95
28432;BME280;15664;51.302;7.744;2023-03-14T01:53:35;83071.69;;;-146.98;99.81
28432;BME280;15664;51.302;7.744;2023-03-14T01:56:01;83159.25;;;-146.98;98.57
28432;BME280;15664;51.302;7.744;2023-03-14T01:58:30;83199.97;;;-146.98;99.10
28432;BME280;15664;51.302;7.744;2023-03-14T02:00:58;83275.31;;;-146.98;100.00
28432;BME280;15664;51.302;7.744;2023-03-14T02:03:24;83301.81;;;-146.98;100.00
28432;BME280;15664;51.302;7.744;2023-03-14T02:05:55;83291.63;;;-146.98;100.00
28432;BME280;15664;51.302;7.744;2023-03-14T02:08:22;83293.66;;;-146.98;100.00
28432;BME280;15664;51.302;7.744;2023-03-14T02:10:53;83330.31;;;-146.98;100.00
28432;BME280;15664;51.302;7.744;2023-03-14T02:13:33;83358.81;;;-146.98;100.00
28432;BME280;15664;51.302;7.744;2023-03-14T02:16:22;83332.34;;;-146.98;100.00
28432;BME280;15664;51.302;7.744;2023-03-14T02:19:01;83373.09;;;-146.98;100.00
28432;BME280;15664;51.302;7.744;2023-03-14T02:22:08;83369.00;;;-146.98;100.00
28432;BME280;15664;51.302;7.744;2023-03-14T02:25:08;83387.34;;;-146.98;100.00
28432;BME280;15664;51.302;7.744;2023-03-14T02:27:37;83442.31;;;-146.98;100.00
28432;BME280;15664;51.302;7.744;2023-03-14T02:30:08;83366.97;;;-146.98;100.00
28432;BME280;15664;51.302;7.744;2023-03-14T02:32:37;83364.94;;;-146.98;100.00
28432;BME280;15664;51.302;7.744;2023-03-14T02:35:09;83352.72;;;-146.98;100.00
28432;BME280;15664;51.302;7.744;2023-03-14T02:37:41;83395.47;;;-146.98;100.00
28432;BME280;15664;51.302;7.744;2023-03-14T02:40:08;83389.38;;;-146.98;100.00
28432;BME280;15664;51.302;7.744;2023-03-14T02:42:34;83350.69;;;-146.98;100.00
28432;BME280;15664;51.302;7.744;2023-03-14T02:45:29;83377.16;;;-146.98;100.00
28432;BME280;15664;51.302;7.744;2023-03-14T02:48:03;83324.22;;;-146.98;100.00
28432;BME280;15664;51.302;7.744;2023-03-14T02:50:33;83350.69;;;-146.98;100.00
28432;BME280;15664;51.302;7.744;2023-03-14T02:52:59;83318.09;;;-146.98;100.00
28432;BME280;15664;51.302;7.744;2023-03-14T02:55:26;83320.13;;;-146.98;100.00
28432;BME280;15664;51.302;7.744;2023-03-14T02:57:55;83299.75;;;-146.98;100.00
28432;BME280;15664;51.302;7.744;2023-03-14T03:00:21;83328.28;;;-146.98;100.00
28432;BME280;15664;51.302;7.744;2023-03-14T03:02:46;83303.84;;;-146.98;100.00
28432;BME280;15664;51.302;7.744;2023-03-14T03:05:13;83277.38;;;-146.98;100.00
28432;BME280;15664;51.302;7.744;2023-03-14T03:07:39;83318.09;;;-146.98;100.00
28432;BME280;15664;51.302;7.744;2023-03-14T03:10:05;83316.06;;;-146.98;100.00
28432;BME280;15664;51.302;7.744;2023-03-14T03:12:30;83265.16;;;-146.98;100.00
28432;BME280;15664;51.302;7.744;2023-03-14T03:14:56;83283.47;;;-146.98;100.00
28432;BME280;15664;51.302;7.744;2023-03-14T03:17:21;83279.41;;;-146.98;100.00
28432;BME280;15664;51.302;7.744;2023-03-14T03:19:47;83236.63;;;-146.98;100.00
28432;BME280;15664;51.302;7.744;2023-03-14T03:22:12;83238.66;;;-146.98;100.00
28432;BME280;15664;51.302;7.744;2023-03-14T03:24:39;83271.25;;;-146.98;100.00
28432;BME280;15664;51.302;7.744;2023-03-14T03:27:05;83234.59;;;-146.98;100.00
28432;BME280;15664;51.302;7.744;2023-03-14T03:29:30;83218.31;;;-146.98;100.00
28432;BME280;15664;51.302;7.744;2023-03-14T03:31:56;83283.47;;;-146.98;100.00
28432;BME280;15664;51.302;7.744;2023-03-14T03:34:21;83289.59;;;-146.98;100.00
28432;BME280;15664;51.302;7.744;2023-03-14T03:36:50;83279.41;;;-146.98;100.00
28432;BME280;15664;51.302;7.744;2023-03-14T03:39:15;83246.81;;;-146.98;100.00
28432;BME280;15664;51.302;7.744;2023-03-14T03:41:41;83273.28;;;-146.98;100.00
28432;BME280;15664;51.302;7.744;2023-03-14T03:44:06;83259.03;;;-146.98;100.00
28432;BME280;15664;51.302;7.744;2023-03-14T03:46:32;83267.19;;;-146.98;100.00
28432;BME280;15664;51.302;7.744;2023-03-14T03:48:59;83257.00;;;-146.98;100.00
28432;BME280;15664;51.302;7.744;2023-03-14T03:51:26;83275.31;;;-146.98;100.00
28432;BME280;15664;51.302;7.744;2023-03-14T03:53:52;83259.03;;;-146.98;100.00
28432;BME280;15664;51.302;7.744;2023-03-14T03:56:25;83267.19;;;-146.98;100.00
28432;BME280;15664;51.302;7.744;2023-03-14T03:58:50;83263.09;;;-146.98;100.00
28432;BME280;15664;51.302;7.744;2023-03-14T04:01:16;83212.19;;;-146.98;100.00
28432;BME280;15664;51.302;7.744;2023-03-14T04:03:44;83246.81;;;-146.98;100.00
28432;BME280;15664;51.302;7.744;2023-03-14T04:06:12;83246.81;;;-146.98;100.00
28432;BME280;15664;51.302;7.744;2023-03-14T04:08:39;83242.75;;;-146.98;100.00
28432;BME280;15664;51.302;7.744;2023-03-14T04:11:07;83289.59;;;-146.98;100.00
28432;BME280;15664;51.302;7.744;2023-03-14T04:13:56;83259.03;;;-146.98;100.00
28432;BME280;15664;51.302;7.744;2023-03-14T04:16:24;83246.81;;;-146.98;100.00
28432;BME280;15664;51.302;7.744;2023-03-14T04:18:53;83261.06;;;-146.98;100.00
28432;BME280;15664;51.302;7.744;2023-03-14T04:21:21;83311.97;;;-146.98;100.00
28432;BME280;15664;51.302;7.744;2023-03-14T04:23:50;83238.66;;;-146.98;100.00
28432;BME280;15664;51.302;7.744;2023-03-14T04:26:16;83210.16;;;-146.98;100.00
28432;BME280;15664;51.302;7.744;2023-03-14T04:28:42;83232.56;;;-146.98;100.00
28432;BME280;15664;51.302;7.744;2023-03-14T04:31:09;83283.47;;;-146.98;100.00
28432;BME280;15664;51.302;7.744;2023-03-14T04:33:35;83240.72;;;-146.98;100.00
28432;BME280;15664;51.302;7.744;2023-03-14T04:36:04;83240.72;;;-146.98;100.00
28432;BME280;15664;51.302;7.744;2023-03-14T04:38:30;83281.44;;;-146.98;100.00
28432;BME280;15664;51.302;7.744;2023-03-14T04:40:56;83254.97;;;-146.98;100.00
28432;BME280;15664;51.302;7.744;2023-03-14T04:43:25;83228.50;;;-146.98;100.00
28432;BME280;15664;51.302;7.744;2023-03-14T04:45:58;83287.53;;;-146.98;100.00
28432;BME280;15664;51.302;7.744;2023-03-14T04:48:25;83293.66;;;-146.98;100.00
28432;BME280;15664;51.302;7.744;2023-03-14T04:50:51;83212.19;;;-146.98;100.00
28432;BME280;15664;51.302;7.744;2023-03-14T04:53:18;83275.31;;;-146.98;100.00
28432;BME280;15664;51.302;7.744;2023-03-14T04:55:49;83318.09;;;-146.98;100.00
28432;BME280;15664;51.302;7.744;2023-03-14T04:58:16;83283.47;;;-146.98;100.00
28432;BME280;15664;51.302;7.744;2023-03-14T05:00:42;83240.72;;;-146.98;100.00
28432;BME280;15664;51.302;7.744;2023-03-14T05:03:34;83273.28;;;-146.98;100.00
28432;BME280;15664;51.302;7.744;2023-03-14T05:06:20;83295.69;;;-146.98;100.00
28432;BME280;15664;51.302;7.744;2023-03-14T05:09:06;83267.19;;;-146.98;100.00
28432;BME280;15664;51.302;7.744;2023-03-14T05:11:42;83244.78;;;-146.98;100.00
28432;BME280;15664;51.302;7.744;2023-03-14T05:14:22;83295.69;;;-146.98;100.00
28432;BME280;15664;51.302;7.744;2023-03-14T05:16:56;83275.31;;;-146.98;100.00
28432;BME280;15664;51.302;7.744;2023-03-14T05:19:29;83254.97;;;-146.98;100.00
28432;BME280;15664;51.302;7.744;2023-03-14T05:22:11;83242.75;;;-146.98;100.00
28432;BME280;15664;51.302;7.744;2023-03-14T05:25:10;83254.97;;;-146.98;100.00
28432;BME280;15664;51.302;7.744;2023-03-14T05:27:59;83254.97;;;-146.98;100.00
28432;BME280;15664;51.302;7.744;2023-03-14T05:30:44;83267.19;;;-146.98;100.00
28432;BME280;15664;51.302;7.744;2023-03-14T05:33:32;83218.31;;;-146.98;100.00
28432;BME280;15664;51.302;7.744;2023-03-14T05:36:17;83244.78;;;-146.98;100.00
28432;BME280;15664;51.302;7.744;2023-03-14T05:39:05;83311.97;;;-146.98;100.00
28432;BME280;15664;51.302;7.744;2023-03-14T05:42:09;83226.44;;;-146.98;100.00
28432;BME280;15664;51.302;7.744;2023-03-14T05:44:44;83316.06;;;-146.98;100.00
28432;BME280;15664;51.302;7.744;2023-03-14T05:47:16;83242.75;;;-146.98;100.00
28432;BME280;15664;51.302;7.744;2023-03-14T05:50:20;83330.31;;;-146.98;100.00
28432;BME280;15664;51.302;7.744;2023-03-14T05:53:08;83263.09;;;-146.98;100.00
28432;BME280;15664;51.302;7.744;2023-03-14T05:55:53;83283.47;;;-146.98;100.00
28432;BME280;15664;51.302;7.744;2023-03-14T05:58:31;83218.31;;;-146.98;100.00
28432;BME280;15664;51.302;7.744;2023-03-14T06:01:19;83299.75;;;-146.98;100.00
28432;BME280;15664;51.302;7.744;2023-03-14T06:04:01;83271.25;;;-146.98;100.00
28432;BME280;15664;51.302;7.744;2023-03-14T06:06:27;83250.88;;;-146.98;100.00
28432;BME280;15664;51.302;7.744;2023-03-14T06:08:53;83224.41;;;-146.98;100.00
28432;BME280;15664;51.302;7.744;2023-03-14T06:11:19;83218.31;;;-146.98;100.00
28432;BME280;15664;51.302;7.744;2023-03-14T06:13:45;83267.19;;;-146.98;100.00
28432;BME280;15664;51.302;7.744;2023-03-14T06:16:11;83234.59;;;-146.98;100.00
28432;BME280;15664;51.302;7.744;2023-03-14T06:18:37;83263.09;;;-146.98;100.00
28432;BME280;15664;51.302;7.744;2023-03-14T06:21:06;83244.78;;;-146.98;100.00
28432;BME280;15664;51.302;7.744;2023-03-14T06:23:33;83246.81;;;-146.98;100.00
28432;BME280;15664;51.302;7.744;2023-03-14T06:26:00;83285.50;;;-146.98;100.00
28432;BME280;15664;51.302;7.744;2023-03-14T06:28:26;83242.75;;;-146.98;100.00
28432;BME280;15664;51.302;7.744;2023-03-14T06:30:56;83297.72;;;-146.98;100.00
28432;BME280;15664;51.302;7.744;2023-03-14T06:33:24;83265.16;;;-146.98;100.00
28432;BME280;15664;51.302;7.744;2023-03-14T06:35:49;83297.72;;;-146.98;100.00
28432;BME280;15664;51.302;7.744;2023-03-14T06:38:15;83291.63;;;-146.98;100.00
28432;BME280;15664;51.302;7.744;2023-03-14T06:40:41;83291.63;;;-146.98;100.00
28432;BME280;15664;51.302;7.744;2023-03-14T06:43:12;83311.97;;;-146.98;100.00
28432;BME280;15664;51.302;7.744;2023-03-14T06:45:40;83254.97;;;-146.98;100.00
28432;BME280;15664;51.302;7.744;2023-03-14T06:48:05;83289.59;;;-146.98;100.00
28432;BME280;15664;51.302;7.744;2023-03-14T06:50:47;83246.81;;;-146.98;100.00
28432;BME280;15664;51.302;7.744;2023-03-14T06:53:13;83259.03;;;-146.98;100.00
28432;BME280;15664;51.302;7.744;2023-03-14T06:55:41;83301.81;;;-146.98;100.00
28432;BME280;15664;51.302;7.744;2023-03-14T06:58:07;83273.28;;;-146.98;100.00
28432;BME280;15664;51.302;7.744;2023-03-14T07:00:38;83263.09;;;-146.98;100.00
28432;BME280;15664;51.302;7.744;2023-03-14T07:03:04;83252.94;;;-146.98;100.00
28432;BME280;15664;51.302;7.744;2023-03-14T07:05:34;83271.25;;;-146.98;100.00
28432;BME280;15664;51.302;7.744;2023-03-14T07:08:00;83259.03;;;-146.98;100.00
28432;BME280;15664;51.302;7.744;2023-03-14T07:10:26;83316.06;;;-146.98;100.00
28432;BME280;15664;51.302;7.744;2023-03-14T07:12:51;83263.09;;;-146.98;100.00
28432;BME280;15664;51.302;7.744;2023-03-14T07:15:19;83267.19;;;-146.98;100.00
28432;BME280;15664;51.302;7.744;2023-03-14T07:17:49;83254.97;;;-146.98;100.00
28432;BME280;15664;51.302;7.744;2023-03-14T07:20:16;83218.31;;;-146.98;100.00
28432;BME280;15664;51.302;7.744;2023-03-14T07:22:42;83263.09;;;-146.98;100.00
28432;BME280;15664;51.302;7.744;2023-03-14T07:25:08;83230.53;;;-146.98;100.00
28432;BME280;15664;51.302;7.744;2023-03-14T07:27:37;83254.97;;;-146.98;100.00
28432;BME280;15664;51.302;7.744;2023-03-14T07:30:03;83301.81;;;-146.98;100.00
28432;BME280;15664;51.302;7.744;2023-03-14T07:32:29;83287.53;;;-146.98;100.00
28432;BME280;15664;51.302;7.744;2023-03-14T07:34:55;83316.06;;;-146.98;100.00
28432;BME280;15664;51.302;7.744;2023-03-14T07:37:21;83246.81;;;-146.98;100.00
28432;BME280;15664;51.302;7.744;2023-03-14T07:39:46;83279.41;;;-146.98;100.00
28432;BME280;15664;51.302;7.744;2023-03-14T07:42:19;83267.19;;;-146.98;100.00
28432;BME280;15664;51.302;7.744;2023-03-14T07:45:09;83275.31;;;-146.98;100.00
28432;BME280;15664;51.302;7.744;2023-03-14T07:47:35;83275.31;;;-146.98;100.00
28432;BME280;15664;51.302;7.744;2023-03-14T07:50:00;83246.81;;;-146.98;100.00
28432;BME280;15664;51.302;7.744;2023-03-14T07:52:26;83197.94;;;-146.98;100.00
28432;BME280;15664;51.302;7.744;2023-03-14T07:54:51;83281.44;;;-146.98;100.00
28432;BME280;15664;51.302;7.744;2023-03-14T07:57:16;83297.72;;;-146.98;100.00
28432;BME280;15664;51.302;7.744;2023-03-14T07:59:42;83242.75;;;-146.98;100.00
28432;BME280;15664;51.302;7.744;2023-03-14T08:02:10;83246.81;;;-146.98;100.00
28432;BME280;15664;51.302;7.744;2023-03-14T08:04:37;83257.00;;;-146.98;100.00
28432;BME280;15664;51.302;7.744;2023-03-14T08:07:03;83295.69;;;-146.98;100.00
28432;BME280;15664;51.302;7.744;2023-03-14T08:09:29;83226.44;;;-146.98;100.00
28432;BME280;15664;51.302;7.744;2023-03-14T08:11:54;83242.75;;;-146.98;100.00
28432;BME280;15664;51.302;7.744;2023-03-14T08:14:20;83228.50;;;-146.98;100.00
28432;BME280;15664;51.302;7.744;2023-03-14T08:16:46;83252.94;;;-146.98;100.00
28432;BME280;15664;51.302;7.744;2023-03-14T08:19:11;83240.72;;;-146.98;100.00
28432;BME280;15664;51.302;7.744;2023-03-14T08:21:36;83250.88;;;-146.98;100.00
28432;BME280;15664;51.302;7.744;2023-03-14T08:24:02;83252.94;;;-146.98;100.00
28432;BME280;15664;51.302;7.744;2023-03-14T08:26:28;83265.16;;;-146.98;100.00
28432;BME280;15664;51.302;7.744;2023-03-14T08:28:53;83257.00;;;-146.98;100.00
28432;BME280;15664;51.302;7.744;2023-03-14T08:31:19;83275.31;;;-146.98;100.00
28432;BME280;15664;51.302;7.744;2023-03-14T08:33:44;83232.56;;;-146.98;100.00
28432;BME280;15664;51.302;7.744;2023-03-14T08:36:10;83242.75;;;-146.98;100.00
28432;BME280;15664;51.302;7.744;2023-03-14T08:38:36;83244.78;;;-146.98;100.00
28432;BME280;15664;51.302;7.744;2023-03-14T08:41:02;83230.53;;;-146.98;100.00
28432;BME280;15664;51.302;7.744;2023-03-14T08:43:28;83224.41;;;-146.98;100.00
28432;BME280;15664;51.302;7.744;2023-03-14T08:45:56;83222.38;;;-146.98;100.00
28432;BME280;15664;51.302;7.744;2023-03-14T08:48:22;83226.44;;;-146.98;100.00
28432;BME280;15664;51.302;7.744;2023-03-14T08:50:47;83230.53;;;-146.98;100.00
28432;BME280;15664;51.302;7.744;2023-03-14T08:53:13;83234.59;;;-146.98;100.00
28432;BME280;15664;51.302;7.744;2023-03-14T08:55:39;83202.00;;;-146.98;100.00
28432;BME280;15664;51.302;7.744;2023-03-14T08:58:04;83189.78;;;-146.98;100.00
28432;BME280;15664;51.302;7.744;2023-03-14T09:00:30;83210.16;;;-146.98;100.00
28432;BME280;15664;51.302;7.744;2023-03-14T09:02:55;83210.16;;;-146.98;100.00
28432;BME280;15664;51.302;7.744;2023-03-14T09:05:21;83224.41;;;-146.98;100.00
28432;BME280;15664;51.302;7.744;2023-03-14T09:07:46;83226.44;;;-146.98;100.00
28432;BME280;15664;51.302;7.744;2023-03-14T09:10:11;83197.94;;;-146.98;100.00
28432;BME280;15664;51.302;7.744;2023-03-14T09:12:37;83250.88;;;-146.98;100.00
28432;BME280;15664;51.302;7.744;2023-03-14T09:15:03;83206.09;;;-146.98;100.00
28432;BME280;15664;51.302;7.744;2023-03-14T09:17:28;83145.00;;;-146.98;100.00
28432;BME280;15664;51.302;7.744;2023-03-14T09:19:54;83195.91;;;-146.98;100.00
28432;BME280;15664;51.302;7.744;2023-03-14T09:22:20;83159.25;;;-146.98;100.00
28432;BME280;15664;51.302;7.744;2023-03-14T09:24:46;83226.44;;;-146.98;100.00
28432;BME280;15664;51.302;7.744;2023-03-14T09:27:11;83197.94;;;-146.98;100.00
28432;BME280;15664;51.302;7.744;2023-03-14T09:29:37;83175.53;;;-146.98;100.00
28432;BME280;15664;51.302;7.744;2023-03-14T09:32:02;83191.84;;;-146.98;100.00
28432;BME280;15664;51.302;7.744;2023-03-14T09:34:29;83175.53;;;-146.98;100.00
28432;BME280;15664;51.302;7.744;2023-03-14T09:36:55;83193.88;;;-146.98;100.00
28432;BME280;15664;51.302;7.744;2023-03-14T09:39:21;83193.88;;;-146.98;100.00
28432;BME280;15664;51.302;7.744;2023-03-14T09:41:49;83181.66;;;-146.98;100.00
28432;BME280;15664;51.302;7.744;2023-03-14T09:44:26;83165.38;;;-146.98;100.00
28432;BME280;15664;51.302;7.744;2023-03-14T09:46:54;83197.94;;;-146.98;100.00
28432;BME280;15664;51.302;7.744;2023-03-14T09:49:29;83179.63;;;-146.98;100.00
28432;BME280;15664;51.302;7.744;2023-03-14T09:51:59;83165.38;;;-146.98;100.00
28432;BME280;15664;51.302;7.744;2023-03-14T09:54:37;83151.09;;;-146.98;100.00
28432;BME280;15664;51.302;7.744;2023-03-14T09:57:05;83145.00;;;-146.98;100.00
28432;BME280;15664;51.302;7.744;2023-03-14T09:59:31;83193.88;;;-146.98;100.00
28432;BME280;15664;51.302;7.744;2023-03-14T10:02:01;83116.50;;;-146.98;100.00
28432;BME280;15664;51.302;7.744;2023-03-14T10:04:30;83199.97;;;-146.98;100.00
28432;BME280;15664;51.302;7.744;2023-03-14T10:06:56;83169.44;;;-146.98;100.00
28432;BME280;15664;51.302;7.744;2023-03-14T10:09:23;83153.13;;;-146.98;100.00
28432;BME280;15664;51.302;7.744;2023-03-14T10:11:54;83140.91;;;-146.98;100.00
28432;BME280;15664;51.302;7.744;2023-03-14T10:14:33;83167.41;;;-146.98;100.00
28432;BME280;15664;51.302;7.744;2023-03-14T10:17:10;83197.94;;;-146.98;100.00
28432;BME280;15664;51.302;7.744;2023-03-14T10:19:36;83202.00;;;-146.98;100.00
28432;BME280;15664;51.302;7.744;2023-03-14T10:22:04;83254.97;;;-146.98;100.00
28432;BME280;15664;51.302;7.744;2023-03-14T10:24:34;83230.53;;;-146.98;100.00
28432;BME280;15664;51.302;7.744;2023-03-14T10:27:03;83206.09;;;-146.98;100.00
28432;BME280;15664;51.302;7.744;2023-03-14T10:29:30;83271.25;;;-146.98;100.00
28432;BME280;15664;51.302;7.744;2023-03-14T10:32:06;83228.50;;;-146.98;100.00
28432;BME280;15664;51.302;7.744;2023-03-14T10:34:38;83334.38;;;-146.98;100.00
28432;BME280;15664;51.302;7.744;2023-03-14T10:37:17;83309.94;;;-146.98;100.00
28432;BME280;15664;51.302;7.744;2023-03-14T10:39:55;83334.38;;;-146.98;100.00
28432;BME280;15664;51.302;7.744;2023-03-14T10:42:28;83354.75;;;-146.98;100.00
28432;BME280;15664;51.302;7.744;2023-03-14T10:45:01;83417.88;;;-146.98;100.00
28432;BME280;15664;51.302;7.744;2023-03-14T10:47:28;83395.47;;;-146.98;100.00
28432;BME280;15664;51.302;7.744;2023-03-14T10:49:55;83424.00;;;-146.98;100.00
28432;BME280;15664;51.302;7.744;2023-03-14T10:52:23;83464.72;;;-146.98;100.00
28432;BME280;15664;51.302;7.744;2023-03-14T10:54:57;83426.03;;;-146.98;100.00
28432;BME280;15664;51.302;7.744;2023-03-14T10:57:23;83426.03;;;-146.98;100.00
28432;BME280;15664;51.302;7.744;2023-03-14T10:59:49;83397.53;;;-146.98;100.00
28432;BME280;15664;51.302;7.744;2023-03-14T11:05:18;83419.91;;;-146.98;100.00
28432;BME280;15664;51.302;7.744;2023-03-14T11:07:46;83385.31;;;-146.98;100.00
28432;BME280;15664;51.302;7.744;2023-03-14T11:10:33;83417.88;;;-146.98;100.00
28432;BME280;15664;51.302;7.744;2023-03-14T11:13:22;83417.88;;;-146.98;100.00
28432;BME280;15664;51.302;7.744;2023-03-14T11:16:06;83442.31;;;-146.98;100.00
28432;BME280;15664;51.302;7.744;2023-03-14T11:18:51;83442.31;;;-146.98;100.00
28432;BME280;15664;51.302;7.744;2023-03-14T11:21:24;83450.47;;;-146.98;100.00
28432;BME280;15664;51.302;7.744;2023-03-14T11:24:08;83495.28;;;-146.98;100.00
28432;BME280;15664;51.302;7.744;2023-03-14T11:27:17;83527.84;;;-146.98;100.00
28432;BME280;15664;51.302;7.744;2023-03-14T11:29:54;83499.34;;;-146.98;100.00
28432;BME280;15664;51.302;7.744;2023-03-14T11:32:34;83474.91;;;-146.98;100.00
28432;BME280;15664;51.302;7.744;2023-03-14T11:35:04;83505.47;;;-146.98;100.00
28432;BME280;15664;51.302;7.744;2023-03-14T11:37:36;83503.41;;;-146.98;100.00
28432;BME280;15664;51.302;7.744;2023-03-14T11:40:13;83564.53;;;-146.98;100.00
28432;BME280;15664;51.302;7.744;2023-03-14T11:42:43;83519.72;;;-146.98;100.00
28432;BME280;15664;51.302;7.744;2023-03-14T11:45:39;83540.06;;;-146.98;100.00
28432;BME280;15664;51.302;7.744;2023-03-14T11:48:50;83531.94;;;-146.98;100.00
28432;BME280;15664;51.302;7.744;2023-03-14T11:51:28;83552.31;;;-146.98;100.00
28432;BME280;15664;51.302;7.744;2023-03-14T11:54:02;83542.13;;;-146.98;100.00
28432;BME280;15664;51.302;7.744;2023-03-14T11:56:46;83536.00;;;-146.98;100.00
28432;BME280;15664;51.302;7.744;2023-03-14T11:59:21;83558.41;;;-146.98;100.00
28432;BME280;15664;51.302;7.744;2023-03-14T12:01:54;83558.41;;;-146.98;100.00
28432;BME280;15664;51.302;7.744;2023-03-14T12:04:39;83574.69;;;-146.98;100.00
28432;BME280;15664;51.302;7.744;2023-03-14T12:07:14;83591.00;;;-146.98;100.00
28432;BME280;15664;51.302;7.744;2023-03-14T12:09:43;83621.53;;;-146.98;100.00
28432;BME280;15664;51.302;7.744;2023-03-14T12:12:12;83595.06;;;-146.98;100.00
28432;BME280;15664;51.302;7.744;2023-03-14T12:14:45;83588.97;;;-146.98;100.00
28432;BME280;15664;51.302;7.744;2023-03-14T12:19:39;83603.22;;;-146.98;100.00
28432;BME280;15664;51.302;7.744;2023-03-14T12:22:23;83613.41;;;-146.98;100.00
28432;BME280;15664;51.302;7.744;2023-03-14T12:24:55;83611.38;;;-146.98;100.00
28432;BME280;15664;51.302;7.744;2023-03-14T12:27:45;83611.38;;;-146.98;100.00
28432;BME280;15664;51.302;7.744;2023-03-14T12:30:29;83668.38;;;-146.98;100.00
28432;BME280;15664;51.302;7.744;2023-03-14T12:35:49;83707.09;;;-146.98;100.00
28432;BME280;15664;51.302;7.744;2023-03-14T12:38:39;83692.81;;;-146.98;100.00
28432;BME280;15664;51.302;7.744;2023-03-14T12:41:21;83678.56;;;-146.98;100.00
28432;BME280;15664;51.302;7.744;2023-03-14T12:43:48;83641.91;;;-146.98;100.00
28432;BME280;15664;51.302;7.744;2023-03-14T12:48:50;83633.75;;;-146.98;100.00
28432;BME280;15664;51.302;7.744;2023-03-14T12:51:27;83666.34;;;-146.98;100.00
28432;BME280;15664;51.302;7.744;2023-03-14T12:59:46;83727.44;;;-146.98;100.00
28432;BME280;15664;51.302;7.744;2023-03-14T13:02:20;83650.06;;;-146.98;100.00
28432;BME280;15664;51.302;7.744;2023-03-14T13:04:48;83609.31;;;-146.98;100.00
28432;BME280;15664;51.302;7.744;2023-03-14T13:07:34;83739.66;;;-146.98;100.00